Time;durP1;ratioP1;P1;durP2;ratioP2;P2;SDS_P1;SDS_P2;PMS_P1;PMS_P2;Temp;Humidity;BMP_temperature;BMP_pressure;BME280_temperature;BME280_humidity;BME280_pressure;Samples;Min_cycle;Max_cycle;Signal;HPM_P1;HPM_P2
2023/06/17 00:00:43;;;;;;;4.00;2.97;;;;;;;;;;5067184;28;41464;-37
2023/06/17 00:03:10;;;;;;;3.65;3.33;;;;;;;;;;5057611;28;43465;-37
2023/06/17 00:05:39;;;;;;;3.03;2.75;;;;;;;;;;5062964;28;40387;-39
2023/06/17 00:08:07;;;;;;;3.28;3.05;;;;;;;;;;5069072;28;43004;-40
2023/06/17 00:10:34;;;;;;;4.15;3.10;;;;;;;;;;5067273;28;44361;-40
2023/06/17 00:13:03;;;;;;;4.20;3.15;;;;;;;;;;5068799;28;40536;-35
2023/06/17 00:15:32;;;;;;;3.60;3.00;;;;;;;;;;5067447;28;43421;-37
2023/06/17 00:18:03;;;;;;;3.88;3.47;;;;;;;;;;5068671;28;40684;-39
2023/06/17 00:20:36;;;;;;;3.63;3.00;;;;;;;;;;5068220;28;42568;-35
2023/06/17 00:23:04;;;;;;;4.13;3.58;;;;;;;;;;5067479;28;44441;-44
2023/06/17 00:25:32;;;;;;;3.25;2.97;;;;;;;;;;5068136;28;40048;-44
2023/06/17 00:28:00;;;;;;;3.60;3.28;;;;;;;;;;5068664;28;42435;-44
2023/06/17 00:30:28;;;;;;;3.80;3.40;;;;;;;;;;5067414;28;44507;-44
2023/06/17 00:32:55;;;;;;;4.80;3.47;;;;;;;;;;5068464;28;40360;-44
2023/06/17 00:35:25;;;;;;;4.03;3.45;;;;;;;;;;5068465;28;43555;-44
2023/06/17 00:37:53;;;;;;;3.53;3.22;;;;;;;;;;5065871;28;38644;-44
2023/06/17 00:40:20;;;;;;;5.70;3.50;;;;;;;;;;5051689;28;41065;-44
2023/06/17 00:42:49;;;;;;;3.85;3.45;;;;;;;;;;5067331;28;45379;-43
2023/06/17 00:45:17;;;;;;;3.60;3.30;;;;;;;;;;5064603;28;39420;-44
2023/06/17 00:47:45;;;;;;;3.85;3.30;;;;;;;;;;5068073;28;43187;-43
2023/06/17 00:50:14;;;;;;;3.85;3.50;;;;;;;;;;5067848;28;44780;-43
2023/06/17 00:52:45;;;;;;;3.75;3.42;;;;;;;;;;5067333;28;40136;-43
2023/06/17 00:55:13;;;;;;;3.78;3.40;;;;;;;;;;5066639;28;43744;-43
2023/06/17 00:57:41;;;;;;;3.92;3.47;;;;;;;;;;5051572;28;43198;-43
2023/06/17 01:00:11;;;;;;;5.10;3.95;;;;;;;;;;5068008;28;42434;-43
2023/06/17 01:02:43;;;;;;;3.95;3.55;;;;;;;;;;5066463;28;43181;-44
2023/06/17 01:05:12;;;;;;;3.63;3.33;;;;;;;;;;5064503;28;41629;-43
2023/06/17 01:07:43;;;;;;;4.40;3.65;;;;;;;;;;5067319;28;42680;-44
2023/06/17 01:10:13;;;;;;;4.13;3.72;;;;;;;;;;5068064;28;42389;-43
2023/06/17 01:12:42;;;;;;;4.78;4.10;;;;;;;;;;5064599;28;39247;-43
2023/06/17 01:15:10;;;;;;;3.78;3.40;;;;;;;;;;5067873;28;43687;-43
2023/06/17 01:17:39;;;;;;;4.20;3.13;;;;;;;;;;5064914;28;42905;-43
2023/06/17 01:20:08;;;;;;;3.45;3.15;;;;;;;;;;5067313;28;40503;-43
2023/06/17 01:22:36;;;;;;;3.67;3.33;;;;;;;;;;5066504;28;43796;-44
2023/06/17 01:25:06;;;;;;;3.92;3.58;;;;;;;;;;5065885;28;39639;-43
2023/06/17 01:27:35;;;;;;;3.72;3.42;;;;;;;;;;5065873;28;42215;-43
2023/06/17 01:30:03;;;;;;;3.80;3.50;;;;;;;;;;5067604;28;43409;-43
2023/06/17 01:32:31;;;;;;;4.35;3.55;;;;;;;;;;5064718;28;39054;-43
2023/06/17 01:35:00;;;;;;;4.18;3.78;;;;;;;;;;5066605;28;41245;-43
2023/06/17 01:37:29;;;;;;;4.68;3.70;;;;;;;;;;5066942;28;43417;-43
2023/06/17 01:39:57;;;;;;;5.07;3.92;;;;;;;;;;5067157;28;40458;-43
2023/06/17 01:42:28;;;;;;;4.30;3.70;;;;;;;;;;5064628;28;43998;-43
2023/06/17 01:44:56;;;;;;;6.40;4.13;;;;;;;;;;5065560;28;40242;-43
2023/06/17 01:47:24;;;;;;;4.78;3.88;;;;;;;;;;5066055;28;42611;-43
2023/06/17 01:49:52;;;;;;;3.78;3.47;;;;;;;;;;5067115;28;44108;-43
2023/06/17 01:52:19;;;;;;;3.83;3.53;;;;;;;;;;5064585;28;38962;-43
2023/06/17 01:54:47;;;;;;;3.78;3.47;;;;;;;;;;5066808;28;43433;-43
2023/06/17 01:57:15;;;;;;;4.60;4.20;;;;;;;;;;5087661;28;42325;-43
2023/06/17 01:59:44;;;;;;;3.70;3.40;;;;;;;;;;5065592;28;38903;-43
2023/06/17 02:02:14;;;;;;;4.00;3.65;;;;;;;;;;5064696;28;41546;-44
2023/06/17 02:04:42;;;;;;;4.05;3.67;;;;;;;;;;5066789;28;40096;-43
2023/06/17 02:07:10;;;;;;;3.97;3.60;;;;;;;;;;5066733;28;42598;-43
2023/06/17 02:09:38;;;;;;;4.55;4.05;;;;;;;;;;5065563;28;44446;-43
2023/06/17 02:12:08;;;;;;;4.00;3.60;;;;;;;;;;5064883;28;39969;-43
2023/06/17 02:14:36;;;;;;;5.05;3.50;;;;;;;;;;5065685;28;43334;-43
2023/06/17 02:17:08;;;;;;;4.25;3.78;;;;;;;;;;5066064;28;43212;-36
2023/06/17 02:19:36;;;;;;;3.70;3.40;;;;;;;;;;5063350;28;40499;-36
2023/06/17 02:22:04;;;;;;;4.20;3.50;;;;;;;;;;5066821;28;42572;-36
2023/06/17 02:24:32;;;;;;;4.30;3.90;;;;;;;;;;5066100;28;43081;-36
2023/06/17 02:27:00;;;;;;;5.10;4.00;;;;;;;;;;5066576;28;42731;-44
2023/06/17 02:29:29;;;;;;;3.83;3.53;;;;;;;;;;5065125;28;43220;-43
2023/06/17 02:31:57;;;;;;;5.07;4.00;;;;;;;;;;5064575;28;39860;-43
2023/06/17 02:34:26;;;;;;;3.85;3.55;;;;;;;;;;5063992;28;42030;-43
2023/06/17 02:36:56;;;;;;;4.85;3.83;;;;;;;;;;5066070;28;43874;-43
2023/06/17 02:39:25;;;;;;;4.15;3.75;;;;;;;;;;5064083;28;39007;-43
2023/06/17 02:41:54;;;;;;;3.97;3.60;;;;;;;;;;5064503;28;42401;-43
2023/06/17 02:44:22;;;;;;;4.05;3.65;;;;;;;;;;5063181;28;43418;-43
2023/06/17 02:46:51;;;;;;;4.45;3.63;;;;;;;;;;5064548;28;39285;-44
2023/06/17 02:49:19;;;;;;;3.88;3.58;;;;;;;;;;5063947;28;41623;-43
2023/06/17 02:51:51;;;;;;;4.25;3.85;;;;;;;;;;5063616;28;39029;-44
2023/06/17 02:54:18;;;;;;;5.75;3.72;;;;;;;;;;5063952;28;40954;-43
2023/06/17 02:56:46;;;;;;;4.10;3.80;;;;;;;;;;5065889;28;43455;-43
2023/06/17 02:59:15;;;;;;;5.32;3.75;;;;;;;;;;5063686;28;39598;-43
2023/06/17 03:01:43;;;;;;;4.40;3.95;;;;;;;;;;5064834;28;42479;-43
2023/06/17 03:04:12;;;;;;;4.68;4.03;;;;;;;;;;5064338;28;42154;-43
2023/06/17 03:06:40;;;;;;;5.13;3.75;;;;;;;;;;5063225;28;40006;-43
2023/06/17 03:09:11;;;;;;;4.40;3.50;;;;;;;;;;5064657;28;42376;-43
2023/06/17 03:11:40;;;;;;;4.15;3.78;;;;;;;;;;5063071;28;38887;-43
2023/06/17 03:14:08;;;;;;;6.75;4.07;;;;;;;;;;5066103;28;42912;-43
2023/06/17 03:16:40;;;;;;;4.70;4.20;;;;;;;;;;5063699;28;42360;-43
2023/06/17 03:19:08;;;;;;;4.60;3.85;;;;;;;;;;5063240;28;39648;-44
2023/06/17 03:21:40;;;;;;;4.32;3.92;;;;;;;;;;5063242;28;41180;-43
2023/06/17 03:24:09;;;;;;;4.18;3.78;;;;;;;;;;5062673;28;44430;-44
2023/06/17 03:26:39;;;;;;;4.38;3.88;;;;;;;;;;5064367;28;39308;-43
2023/06/17 03:29:06;;;;;;;4.60;4.18;;;;;;;;;;5069501;28;42894;-43
2023/06/17 03:31:35;;;;;;;3.95;3.65;;;;;;;;;;5067649;28;42061;-44
2023/06/17 03:34:03;;;;;;;4.32;3.92;;;;;;;;;;5068466;28;42446;-43
2023/06/17 03:36:31;;;;;;;4.70;4.30;;;;;;;;;;5066541;28;41873;-44
2023/06/17 03:38:59;;;;;;;5.82;4.22;;;;;;;;;;5066947;28;38916;-43
2023/06/17 03:41:32;;;;;;;4.70;3.88;;;;;;;;;;5065352;28;41400;-43
2023/06/17 03:44:02;;;;;;;4.47;3.88;;;;;;;;;;5066434;28;42645;-44
2023/06/17 03:46:30;;;;;;;4.30;3.90;;;;;;;;;;5066233;28;39479;-43
2023/06/17 03:48:58;;;;;;;5.25;4.63;;;;;;;;;;5067777;28;41211;-44
2023/06/17 03:51:27;;;;;;;4.00;3.70;;;;;;;;;;5067142;28;41971;-43
2023/06/17 03:53:55;;;;;;;4.43;4.03;;;;;;;;;;5066292;28;41742;-44
2023/06/17 03:56:23;;;;;;;5.50;4.40;;;;;;;;;;5066228;28;41900;-43
2023/06/17 03:58:53;;;;;;;4.65;3.97;;;;;;;;;;5068548;28;41307;-43
2023/06/17 04:01:23;;;;;;;4.38;3.97;;;;;;;;;;5065499;28;41736;-43
2023/06/17 04:03:51;;;;;;;5.32;3.92;;;;;;;;;;5066469;28;41823;-43
2023/06/17 04:06:20;;;;;;;4.28;3.88;;;;;;;;;;5066437;28;39139;-44
2023/06/17 04:08:48;;;;;;;5.80;4.55;;;;;;;;;;5066342;28;41050;-43
2023/06/17 04:11:16;;;;;;;4.20;3.90;;;;;;;;;;5068623;28;43808;-43
2023/06/17 04:13:44;;;;;;;4.68;4.28;;;;;;;;;;5068791;28;40686;-44
2023/06/17 04:16:15;;;;;;;5.90;4.40;;;;;;;;;;5066045;28;42222;-43
2023/06/17 04:18:45;;;;;;;4.40;4.00;;;;;;;;;;5067490;28;41762;-43
2023/06/17 04:21:13;;;;;;;4.38;3.97;;;;;;;;;;5081097;28;42201;-44
2023/06/17 04:23:41;;;;;;;4.70;3.90;;;;;;;;;;5066074;28;43762;-43
2023/06/17 04:26:12;;;;;;;4.50;4.10;;;;;;;;;;5066587;28;39952;-44
2023/06/17 04:28:41;;;;;;;5.32;4.05;;;;;;;;;;5067695;28;42383;-43
2023/06/17 04:31:10;;;;;;;4.90;4.50;;;;;;;;;;5066967;28;44984;-44
2023/06/17 04:33:40;;;;;;;4.53;4.07;;;;;;;;;;5066137;28;39719;-44
2023/06/17 04:36:10;;;;;;;4.35;4.05;;;;;;;;;;5066409;28;42089;-43
2023/06/17 04:38:41;;;;;;;4.85;4.45;;;;;;;;;;5065774;28;39113;-43
2023/06/17 04:41:10;;;;;;;5.85;4.18;;;;;;;;;;5066097;28;41225;-43
2023/06/17 04:43:38;;;;;;;6.22;4.07;;;;;;;;;;5064679;28;41875;-43
2023/06/17 04:46:09;;;;;;;4.70;4.15;;;;;;;;;;5065761;28;39296;-43
2023/06/17 04:48:38;;;;;;;5.45;4.05;;;;;;;;;;5065572;28;41614;-43
2023/06/17 04:51:07;;;;;;;4.65;4.00;;;;;;;;;;5065781;28;42129;-44
2023/06/17 04:53:38;;;;;;;5.03;4.63;;;;;;;;;;5066047;28;38306;-44
2023/06/17 04:56:07;;;;;;;4.65;4.25;;;;;;;;;;5066420;28;42080;-44
2023/06/17 04:58:35;;;;;;;4.65;4.25;;;;;;;;;;5064775;28;41798;-44
2023/06/17 05:01:10;;;;;;;4.90;4.40;;;;;;;;;;5066379;28;43295;-44
2023/06/17 05:03:38;;;;;;;5.05;4.63;;;;;;;;;;5050882;28;41991;-44
2023/06/17 05:06:07;;;;;;;5.32;4.40;;;;;;;;;;5065272;28;38920;-44
2023/06/17 05:08:37;;;;;;;4.70;4.30;;;;;;;;;;5065307;28;41159;-44
2023/06/17 05:11:06;;;;;;;4.70;4.30;;;;;;;;;;5065233;28;42715;-44
2023/06/17 05:13:37;;;;;;;4.93;4.43;;;;;;;;;;5065309;28;39196;-44
2023/06/17 05:16:05;;;;;;;4.88;4.35;;;;;;;;;;5065979;28;42379;-44
2023/06/17 05:18:37;;;;;;;5.10;4.60;;;;;;;;;;5063028;28;42030;-44
2023/06/17 05:21:05;;;;;;;6.13;5.10;;;;;;;;;;5065440;28;39005;-44
2023/06/17 05:23:33;;;;;;;4.82;4.43;;;;;;;;;;5064248;28;42801;-44
2023/06/17 05:26:02;;;;;;;4.72;4.32;;;;;;;;;;5064098;28;38925;-44
2023/06/17 05:28:31;;;;;;;5.90;4.72;;;;;;;;;;5064047;28;42102;-44
2023/06/17 05:30:59;;;;;;;5.18;4.53;;;;;;;;;;5066494;28;43923;-44
2023/06/17 05:33:27;;;;;;;5.13;4.63;;;;;;;;;;5063870;28;38662;-44
2023/06/17 05:36:00;;;;;;;7.13;4.93;;;;;;;;;;5067371;28;43735;-44
2023/06/17 05:38:29;;;;;;;4.68;4.25;;;;;;;;;;5065239;28;42206;-44
2023/06/17 05:40:57;;;;;;;4.55;4.15;;;;;;;;;;5066818;28;41350;-44
2023/06/17 05:43:28;;;;;;;4.85;4.45;;;;;;;;;;5064546;28;42260;-45
2023/06/17 05:45:57;;;;;;;4.97;4.50;;;;;;;;;;5059212;28;39915;-44
2023/06/17 05:48:25;;;;;;;5.20;4.70;;;;;;;;;;5063296;28;41329;-43
2023/06/17 05:50:54;;;;;;;5.43;4.93;;;;;;;;;;5098030;28;42959;-43
2023/06/17 05:53:21;;;;;;;6.13;4.97;;;;;;;;;;5063581;28;38841;-43
2023/06/17 05:55:51;;;;;;;5.47;4.97;;;;;;;;;;5064197;28;43554;-44
2023/06/17 05:58:19;;;;;;;5.55;4.75;;;;;;;;;;5064479;28;42962;-43
2023/06/17 06:00:56;;;;;;;6.50;4.78;;;;;;;;;;5064222;28;38817;-43
2023/06/17 06:03:24;;;;;;;5.80;5.22;;;;;;;;;;5064934;28;41584;-44
2023/06/17 06:05:52;;;;;;;12.52;5.90;;;;;;;;;;5065700;28;39017;-47
2023/06/17 06:08:20;;;;;;;12.13;6.20;;;;;;;;;;5063779;28;42746;-43
2023/06/17 06:10:48;;;;;;;6.68;6.05;;;;;;;;;;5066593;28;43882;-44
2023/06/17 06:13:16;;;;;;;7.43;6.57;;;;;;;;;;5064577;28;38854;-44
2023/06/17 06:15:44;;;;;;;9.40;6.50;;;;;;;;;;5064078;28;42650;-44
2023/06/17 06:18:13;;;;;;;7.15;6.43;;;;;;;;;;5064834;28;42439;-43
2023/06/17 06:20:41;;;;;;;8.40;7.50;;;;;;;;;;5064015;28;40482;-43
2023/06/17 06:23:09;;;;;;;8.80;7.72;;;;;;;;;;5065301;28;42780;-43
2023/06/17 06:25:37;;;;;;;9.13;7.70;;;;;;;;;;5063620;28;44809;-44
2023/06/17 06:28:06;;;;;;;9.05;7.90;;;;;;;;;;5064090;28;40934;-43
2023/06/17 06:30:34;;;;;;;11.73;8.60;;;;;;;;;;5063129;28;43345;-43
2023/06/17 06:33:02;;;;;;;11.10;8.90;;;;;;;;;;5064325;28;39008;-43
2023/06/17 06:35:32;;;;;;;12.23;9.52;;;;;;;;;;5063309;28;41127;-43
2023/06/17 06:38:01;;;;;;;15.27;9.45;;;;;;;;;;5063649;28;42112;-43
2023/06/17 06:40:29;;;;;;;11.45;9.65;;;;;;;;;;5064001;28;38922;-43
2023/06/17 06:42:56;;;;;;;12.02;9.73;;;;;;;;;;5064818;28;42868;-43
2023/06/17 06:45:26;;;;;;;14.68;10.13;;;;;;;;;;5063794;28;42189;-44
2023/06/17 06:47:55;;;;;;;13.90;10.43;;;;;;;;;;5060670;28;39957;-43
2023/06/17 06:50:23;;;;;;;14.23;10.43;;;;;;;;;;5062093;28;42597;-43
2023/06/17 06:52:54;;;;;;;12.60;10.75;;;;;;;;;;5063493;28;39459;-43
2023/06/17 06:55:23;;;;;;;12.00;10.15;;;;;;;;;;5063791;28;41500;-43
2023/06/17 06:57:55;;;;;;;12.15;10.63;;;;;;;;;;5061366;28;43486;-43
2023/06/17 07:00:24;;;;;;;12.82;11.25;;;;;;;;;;5063947;28;38485;-43
2023/06/17 07:02:51;;;;;;;12.57;10.85;;;;;;;;;;5069613;28;42538;-43
2023/06/17 07:05:20;;;;;;;17.30;11.10;;;;;;;;;;5067992;28;43287;-43
2023/06/17 07:07:52;;;;;;;14.65;10.57;;;;;;;;;;5068119;28;38948;-43
2023/06/17 07:10:22;;;;;;;14.65;11.00;;;;;;;;;;5064526;28;42073;-43
2023/06/17 07:12:50;;;;;;;13.50;11.25;;;;;;;;;;5066242;28;38662;-43
2023/06/17 07:15:19;;;;;;;13.57;10.32;;;;;;;;;;5066560;28;40848;-43
2023/06/17 07:17:49;;;;;;;14.07;10.88;;;;;;;;;;5062100;28;42967;-43
2023/06/17 07:20:17;;;;;;;14.38;10.90;;;;;;;;;;5067592;28;40414;-43
2023/06/17 07:22:47;;;;;;;12.63;9.43;;;;;;;;;;5066975;28;41888;-43
2023/06/17 07:25:15;;;;;;;12.75;9.68;;;;;;;;;;5064886;28;43226;-43
2023/06/17 07:27:44;;;;;;;12.45;9.45;;;;;;;;;;5068862;28;40327;-43
2023/06/17 07:30:12;;;;;;;10.98;9.27;;;;;;;;;;5066412;28;42360;-43
2023/06/17 07:32:40;;;;;;;11.80;9.07;;;;;;;;;;5066374;28;42579;-44
2023/06/17 07:35:09;;;;;;;9.80;8.48;;;;;;;;;;5066938;28;42072;-43
2023/06/17 07:37:37;;;;;;;11.70;8.20;;;;;;;;;;5063876;28;43550;-43
2023/06/17 07:40:07;;;;;;;12.90;8.35;;;;;;;;;;5066511;28;40424;-43
2023/06/17 07:42:34;;;;;;;9.15;7.45;;;;;;;;;;5066425;28;42240;-42
2023/06/17 07:45:04;;;;;;;8.88;7.85;;;;;;;;;;5066696;28;43914;-43
2023/06/17 07:47:32;;;;;;;11.98;7.97;;;;;;;;;;5065917;28;40240;-42
2023/06/17 07:50:00;;;;;;;9.23;7.35;;;;;;;;;;5066787;28;42308;-43
2023/06/17 07:52:29;;;;;;;9.88;7.43;;;;;;;;;;5066279;28;43862;-42
2023/06/17 07:54:56;;;;;;;8.45;7.15;;;;;;;;;;5066437;28;39869;-42
2023/06/17 07:57:25;;;;;;;8.57;7.65;;;;;;;;;;5066795;28;43306;-42
2023/06/17 07:59:53;;;;;;;7.65;6.85;;;;;;;;;;5067454;28;40411;-43
2023/06/17 08:02:22;;;;;;;8.05;7.10;;;;;;;;;;5067714;28;43593;-43
2023/06/17 08:04:51;;;;;;;7.25;6.10;;;;;;;;;;5065971;28;43793;-43
2023/06/17 08:07:20;;;;;;;7.15;6.32;;;;;;;;;;5066364;28;40406;-43
2023/06/17 08:09:48;;;;;;;6.82;6.22;;;;;;;;;;5067713;28;43712;-43
2023/06/17 08:12:16;;;;;;;7.45;6.28;;;;;;;;;;5066649;28;43529;-43
2023/06/17 08:14:44;;;;;;;8.55;6.60;;;;;;;;;;5067541;28;40197;-42
2023/06/17 08:17:12;;;;;;;6.57;5.82;;;;;;;;;;5067919;28;43359;-43
2023/06/17 08:19:42;;;;;;;7.68;6.63;;;;;;;;;;5066539;28;40828;-42
2023/06/17 08:22:10;;;;;;;8.80;6.70;;;;;;;;;;5060732;28;43235;-43
2023/06/17 08:24:39;;;;;;;8.30;6.15;;;;;;;;;;5067319;28;43390;-43
2023/06/17 08:27:09;;;;;;;7.95;6.57;;;;;;;;;;5067594;28;40851;-43
2023/06/17 08:29:37;;;;;;;7.55;6.38;;;;;;;;;;5063764;28;43751;-37
2023/06/17 08:32:06;;;;;;;6.43;5.50;;;;;;;;;;5067610;28;44600;-34
2023/06/17 08:34:35;;;;;;;7.30;6.03;;;;;;;;;;5066514;28;41601;-37
2023/06/17 08:37:05;;;;;;;7.97;6.18;;;;;;;;;;5067418;28;42940;-38
2023/06/17 08:39:32;;;;;;;6.35;5.75;;;;;;;;;;5066298;28;41280;-38
2023/06/17 08:42:00;;;;;;;6.38;5.78;;;;;;;;;;5066507;28;42301;-43
2023/06/17 08:44:28;;;;;;;7.68;5.68;;;;;;;;;;5065541;28;44012;-43
2023/06/17 08:46:56;;;;;;;9.57;6.00;;;;;;;;;;5066679;28;40252;-43
2023/06/17 08:49:24;;;;;;;7.10;5.55;;;;;;;;;;5066297;28;42360;-43
2023/06/17 08:51:52;;;;;;;8.73;5.60;;;;;;;;;;5066679;28;44980;-43
2023/06/17 08:54:21;;;;;;;7.32;5.50;;;;;;;;;;5066618;28;41321;-44
2023/06/17 08:56:49;;;;;;;12.85;6.20;;;;;;;;;;5065927;28;43892;-44
2023/06/17 08:59:17;;;;;;;7.85;5.70;;;;;;;;;;5067295;28;43716;-44
2023/06/17 09:01:45;;;;;;;9.25;5.93;;;;;;;;;;5066132;28;42506;-44
2023/06/17 09:04:13;;;;;;;9.32;6.28;;;;;;;;;;5066396;28;43966;-44
2023/06/17 09:06:41;;;;;;;10.40;6.03;;;;;;;;;;5059615;28;40034;-44
2023/06/17 09:09:09;;;;;;;8.68;5.70;;;;;;;;;;5066327;28;43121;-44
2023/06/17 09:11:38;;;;;;;9.60;5.70;;;;;;;;;;5065552;28;44564;-44
2023/06/17 09:14:06;;;;;;;8.20;5.78;;;;;;;;;;5065492;28;39373;-44
2023/06/17 09:16:34;;;;;;;10.15;5.55;;;;;;;;;;5066331;28;44109;-44
2023/06/17 09:19:03;;;;;;;7.28;5.25;;;;;;;;;;5065282;28;42635;-44
2023/06/17 09:21:31;;;;;;;8.77;5.45;;;;;;;;;;5066341;28;39805;-44
2023/06/17 09:24:00;;;;;;;7.55;5.57;;;;;;;;;;5063643;28;43123;-44
2023/06/17 09:26:29;;;;;;;8.35;5.75;;;;;;;;;;5065510;28;40954;-44
2023/06/17 09:29:02;;;;;;;11.95;5.75;;;;;;;;;;5066986;28;42202;-44
2023/06/17 09:31:30;;;;;;;9.75;6.25;;;;;;;;;;5062149;28;43973;-44
2023/06/17 09:33:58;;;;;;;11.48;6.00;;;;;;;;;;5066776;28;41317;-44
2023/06/17 09:36:26;;;;;;;20.90;6.32;;;;;;;;;;5065726;28;42687;-43
2023/06/17 09:38:54;;;;;;;10.63;5.50;;;;;;;;;;5065649;28;43734;-43
2023/06/17 09:41:23;;;;;;;9.45;5.57;;;;;;;;;;5065879;28;40609;-43
2023/06/17 09:43:51;;;;;;;12.45;5.60;;;;;;;;;;5066505;28;44875;-43
2023/06/17 09:46:29;;;;;;;8.52;5.82;;;;;;;;;;5065054;28;40661;-43
2023/06/17 09:48:58;;;;;;;7.57;5.30;;;;;;;;;;5063812;28;43182;-43
2023/06/17 09:51:26;;;;;;;7.75;6.05;;;;;;;;;;5063885;28;43023;-43
2023/06/17 09:53:54;;;;;;;6.70;5.18;;;;;;;;;;5065829;28;40234;-43
2023/06/17 09:56:22;;;;;;;15.30;6.22;;;;;;;;;;5065769;28;42047;-43
2023/06/17 09:58:50;;;;;;;11.85;5.85;;;;;;;;;;5066428;28;43429;-43
2023/06/17 10:01:18;;;;;;;19.10;5.90;;;;;;;;;;5064996;28;41357;-43
2023/06/17 10:03:48;;;;;;;12.07;5.68;;;;;;;;;;5066207;28;43547;-43
2023/06/17 10:06:19;;;;;;;11.35;5.47;;;;;;;;;;5066573;28;33796;-43
2023/06/17 10:08:48;;;;;;;17.67;6.20;;;;;;;;;;5063855;28;42618;-44
2023/06/17 10:11:18;;;;;;;7.43;5.80;;;;;;;;;;5065761;28;43457;-43
2023/06/17 10:13:49;;;;;;;9.75;5.15;;;;;;;;;;5065482;28;40949;-43
2023/06/17 10:16:18;;;;;;;7.05;5.50;;;;;;;;;;5062388;28;43778;-43
2023/06/17 10:18:48;;;;;;;8.60;5.63;;;;;;;;;;5066035;28;44095;-43
2023/06/17 10:21:16;;;;;;;7.88;5.57;;;;;;;;;;5062882;28;40445;-43
2023/06/17 10:23:44;;;;;;;8.05;5.53;;;;;;;;;;5065668;28;43763;-43
2023/06/17 10:26:12;;;;;;;11.88;5.53;;;;;;;;;;5066296;28;43244;-43
2023/06/17 10:28:44;;;;;;;8.60;5.47;;;;;;;;;;5063680;28;42927;-43
2023/06/17 10:31:23;;;;;;;6.50;5.68;;;;;;;;;;5062654;28;43029;-43
2023/06/17 10:33:55;;;;;;;6.35;5.75;;;;;;;;;;5056524;28;40460;-44
2023/06/17 10:36:23;;;;;;;6.63;5.43;;;;;;;;;;5064707;28;42900;-43
2023/06/17 10:38:55;;;;;;;8.45;5.88;;;;;;;;;;5065525;28;42927;-43
2023/06/17 10:41:24;;;;;;;8.18;5.60;;;;;;;;;;5060136;28;39945;-43
2023/06/17 10:43:52;;;;;;;7.68;5.60;;;;;;;;;;5063039;28;42232;-43
2023/06/17 10:46:24;;;;;;;8.05;5.68;;;;;;;;;;5066019;28;20672;-44
2023/06/17 10:48:53;;;;;;;6.70;5.30;;;;;;;;;;5062153;28;40342;-43
2023/06/17 10:51:24;;;;;;;6.32;5.30;;;;;;;;;;5065516;28;43405;-43
2023/06/17 10:54:09;;;;;;;5.70;5.18;;;;;;;;;;5062248;28;40192;-44
2023/06/17 10:56:46;;;;;;;6.70;5.88;;;;;;;;;;5063988;28;43957;-43
2023/06/17 10:59:14;;;;;;;5.75;5.25;;;;;;;;;;5063658;28;43346;-43
2023/06/17 11:01:42;;;;;;;7.25;5.28;;;;;;;;;;5064944;28;40452;-43
2023/06/17 11:04:12;;;;;;;8.10;5.38;;;;;;;;;;5058554;28;43651;-43
2023/06/17 11:06:41;;;;;;;6.18;5.57;;;;;;;;;;5064634;28;46025;-43
2023/06/17 11:09:09;;;;;;;6.13;5.53;;;;;;;;;;5064942;28;39828;-43
2023/06/17 11:11:37;;;;;;;5.90;5.18;;;;;;;;;;5057559;28;42182;-43
2023/06/17 11:14:05;;;;;;;5.70;5.18;;;;;;;;;;5064268;28;40349;-43
2023/06/17 11:16:33;;;;;;;6.18;5.57;;;;;;;;;;5065158;28;42293;-43
2023/06/17 11:19:01;;;;;;;6.15;5.25;;;;;;;;;;5064443;28;43284;-43
2023/06/17 11:21:30;;;;;;;7.20;5.40;;;;;;;;;;5064478;28;40256;-44
2023/06/17 11:23:59;;;;;;;6.20;5.50;;;;;;;;;;5064219;28;42759;-43
2023/06/17 11:26:27;;;;;;;5.70;5.22;;;;;;;;;;5052467;28;44474;-43
2023/06/17 11:28:55;;;;;;;5.18;4.68;;;;;;;;;;5065143;28;41148;-44
2023/06/17 11:31:25;;;;;;;5.55;5.05;;;;;;;;;;5064237;28;43550;-43
2023/06/17 11:33:57;;;;;;;6.60;5.47;;;;;;;;;;5064267;28;43412;-43
2023/06/17 11:36:25;;;;;;;6.20;5.35;;;;;;;;;;5064540;28;42675;-43
2023/06/17 11:38:54;;;;;;;6.97;5.43;;;;;;;;;;5063692;28;44010;-43
2023/06/17 11:41:23;;;;;;;5.88;5.32;;;;;;;;;;5064427;28;40130;-43
2023/06/17 11:43:51;;;;;;;6.68;5.22;;;;;;;;;;5055425;28;42637;-44
2023/06/17 11:46:20;;;;;;;6.13;5.38;;;;;;;;;;5064412;28;44563;-44
2023/06/17 11:48:48;;;;;;;6.45;5.35;;;;;;;;;;5068594;28;40370;-43
2023/06/17 11:51:16;;;;;;;6.10;4.95;;;;;;;;;;5068895;28;42521;-43
2023/06/17 11:53:46;;;;;;;9.70;5.65;;;;;;;;;;5067457;28;44373;-43
2023/06/17 11:56:15;;;;;;;5.68;5.18;;;;;;;;;;5069226;28;39811;-43
2023/06/17 11:58:45;;;;;;;6.50;5.43;;;;;;;;;;5068219;28;43383;-43
2023/06/17 12:01:14;;;;;;;6.85;4.72;;;;;;;;;;5066224;28;43047;-43
2023/06/17 12:03:44;;;;;;;5.93;5.38;;;;;;;;;;5079813;28;42488;-43
2023/06/17 12:06:17;;;;;;;5.55;4.72;;;;;;;;;;5065272;28;43447;-44
2023/06/17 12:08:55;;;;;;;6.35;5.47;;;;;;;;;;5065401;28;40570;-43
2023/06/17 12:11:26;;;;;;;5.60;5.00;;;;;;;;;;5064498;28;43088;-43
2023/06/17 12:13:55;;;;;;;5.90;5.40;;;;;;;;;;5067080;28;44507;-43
2023/06/17 12:16:24;;;;;;;6.22;5.63;;;;;;;;;;5067972;28;40712;-43
2023/06/17 12:18:52;;;;;;;8.00;4.78;;;;;;;;;;5067518;28;42806;-43
2023/06/17 12:21:20;;;;;;;6.05;5.30;;;;;;;;;;5066804;28;41207;-43
2023/06/17 12:23:49;;;;;;;5.43;4.93;;;;;;;;;;5068654;28;42439;-43
2023/06/17 12:26:17;;;;;;;6.43;5.35;;;;;;;;;;5068084;28;42821;-43
2023/06/17 12:28:45;;;;;;;6.53;5.57;;;;;;;;;;5067147;28;40323;-43
2023/06/17 12:31:14;;;;;;;7.43;5.10;;;;;;;;;;5068645;28;43168;-43
2023/06/17 12:33:42;;;;;;;12.48;5.07;;;;;;;;;;5068313;28;43968;-44
2023/06/17 12:36:10;;;;;;;6.10;5.47;;;;;;;;;;5067159;28;40408;-43
2023/06/17 12:38:39;;;;;;;5.60;5.10;;;;;;;;;;5068230;28;43197;-43
2023/06/17 12:41:07;;;;;;;5.47;4.97;;;;;;;;;;5067435;28;40167;-44
2023/06/17 12:43:35;;;;;;;5.43;5.03;;;;;;;;;;5067284;28;43000;-43
2023/06/17 12:46:04;;;;;;;6.90;4.90;;;;;;;;;;5068238;28;44099;-43
2023/06/17 12:48:34;;;;;;;6.00;5.35;;;;;;;;;;5066836;28;40815;-44
2023/06/17 12:51:02;;;;;;;6.55;5.40;;;;;;;;;;5068060;28;44436;-44
2023/06/17 12:53:30;;;;;;;7.80;6.00;;;;;;;;;;5060763;28;44595;-43
2023/06/17 12:55:58;;;;;;;6.82;5.50;;;;;;;;;;5067747;28;40427;-43
2023/06/17 12:58:26;;;;;;;5.30;4.80;;;;;;;;;;5067448;28;42545;-43
2023/06/17 13:00:54;;;;;;;6.68;5.35;;;;;;;;;;5066452;28;42543;-43
2023/06/17 13:03:22;;;;;;;5.90;5.30;;;;;;;;;;5067097;28;42539;-43
2023/06/17 13:05:51;;;;;;;5.13;4.72;;;;;;;;;;5067916;28;42487;-44
2023/06/17 13:08:19;;;;;;;6.10;5.45;;;;;;;;;;5066827;28;40096;-43
2023/06/17 13:10:47;;;;;;;5.60;4.82;;;;;;;;;;5066650;28;43149;-43
2023/06/17 13:13:15;;;;;;;5.07;4.60;;;;;;;;;;5067085;28;43130;-43
2023/06/17 13:15:43;;;;;;;5.80;5.15;;;;;;;;;;5067572;28;40064;-43
2023/06/17 13:18:12;;;;;;;8.38;5.70;;;;;;;;;;5062851;28;42614;-43
2023/06/17 13:20:40;;;;;;;6.32;5.72;;;;;;;;;;5062279;28;43175;-43
2023/06/17 13:23:10;;;;;;;6.00;5.50;;;;;;;;;;5068083;28;40147;-43
2023/06/17 13:25:38;;;;;;;5.28;4.88;;;;;;;;;;5066369;28;43427;-43
2023/06/17 13:28:06;;;;;;;5.28;4.78;;;;;;;;;;5068187;28;40096;-43
2023/06/17 13:30:35;;;;;;;5.75;4.80;;;;;;;;;;5066407;28;43274;-43
2023/06/17 13:33:03;;;;;;;6.80;5.13;;;;;;;;;;5067553;28;43397;-43
2023/06/17 13:35:31;;;;;;;5.63;5.13;;;;;;;;;;5066822;28;40313;-43
2023/06/17 13:38:02;;;;;;;5.78;5.07;;;;;;;;;;5066667;28;42770;-43
2023/06/17 13:40:32;;;;;;;5.50;5.00;;;;;;;;;;5066309;28;43145;-43
2023/06/17 13:43:01;;;;;;;5.28;4.88;;;;;;;;;;5064568;28;40575;-43
2023/06/17 13:45:28;;;;;;;5.72;5.22;;;;;;;;;;5063842;28;42955;-43
2023/06/17 13:47:57;;;;;;;5.28;4.78;;;;;;;;;;5067731;28;40763;-43
2023/06/17 13:50:25;;;;;;;5.78;5.18;;;;;;;;;;5067150;28;43775;-43
2023/06/17 13:52:53;;;;;;;5.18;4.78;;;;;;;;;;5066623;28;44008;-43
2023/06/17 13:55:21;;;;;;;5.65;5.15;;;;;;;;;;5067094;28;40950;-43
2023/06/17 13:57:50;;;;;;;5.35;4.85;;;;;;;;;;5067253;28;42876;-43
2023/06/17 14:00:18;;;;;;;6.93;5.00;;;;;;;;;;5065840;28;45135;-43
2023/06/17 14:02:47;;;;;;;5.85;5.32;;;;;;;;;;5067419;28;40342;-43
2023/06/17 14:05:15;;;;;;;5.45;4.95;;;;;;;;;;5067372;28;42240;-43
2023/06/17 14:07:42;;;;;;;5.45;4.95;;;;;;;;;;5066318;28;43191;-43
2023/06/17 14:10:11;;;;;;;4.97;4.57;;;;;;;;;;5066005;28;41980;-43
2023/06/17 14:12:39;;;;;;;5.53;5.10;;;;;;;;;;5065544;28;43319;-43
2023/06/17 14:15:09;;;;;;;9.05;4.75;;;;;;;;;;5066879;28;40362;-43
2023/06/17 14:17:37;;;;;;;5.38;4.88;;;;;;;;;;5066580;28;42614;-43
2023/06/17 14:20:06;;;;;;;5.40;4.90;;;;;;;;;;5065911;28;43324;-43
2023/06/17 14:22:34;;;;;;;5.65;5.15;;;;;;;;;;5066155;28;41087;-43
2023/06/17 14:25:02;;;;;;;5.53;5.05;;;;;;;;;;5065969;28;42539;-43
2023/06/17 14:27:37;;;;;;;6.18;5.15;;;;;;;;;;5064806;28;44444;-43
2023/06/17 14:30:05;;;;;;;5.53;4.97;;;;;;;;;;5066676;28;42173;-43
2023/06/17 14:32:35;;;;;;;5.40;4.90;;;;;;;;;;5066386;28;43147;-43
2023/06/17 14:35:03;;;;;;;5.35;4.93;;;;;;;;;;5065810;28;40315;-43
2023/06/17 14:37:32;;;;;;;5.05;4.50;;;;;;;;;;5066072;28;42785;-43
2023/06/17 14:40:00;;;;;;;5.20;4.72;;;;;;;;;;5065847;28;43127;-43
2023/06/17 14:42:28;;;;;;;5.10;4.70;;;;;;;;;;5065486;28;39607;-43
2023/06/17 14:44:55;;;;;;;5.25;4.80;;;;;;;;;;5065875;28;43181;-43
2023/06/17 14:47:23;;;;;;;5.53;5.03;;;;;;;;;;5066114;28;43992;-43
2023/06/17 14:49:53;;;;;;;5.45;5.00;;;;;;;;;;5065618;28;40814;-43